Terminal Aerodrome Forecast
Issued by NWS

Home | Current Version | Previous Version | Text Only | Print | Product List | Glossary On
Versions: 1 2 3 4 5 6 7 8 9 10 11 12 13 14 15 16
000
FTUS42 KTBW 270044 AAA
TAFRSW
TAF AMD
KRSW 270044Z 2701/2724 03006KT P6SM VCSH SCT025 BKN050 BKN250
      TEMPO 2701/2702 6SM SHRA
     FM270300 VRB03KT P6SM FEW020 SCT250
     FM271400 21005KT P6SM FEW030 SCT250
     FM271800 25007KT P6SM VCTS SCT045CB SCT150=

USA.gov is the U.S. government's official web portal to all federal, state and local government web resources and services.